Time;durP1;ratioP1;P1;durP2;ratioP2;P2;SDS_P1;SDS_P2;PMS_P1;PMS_P2;Temp;Humidity;BMP_temperature;BMP_pressure;BME280_temperature;BME280_humidity;BME280_pressure;Samples;Min_cycle;Max_cycle;Signal;HPM_P1;HPM_P2
2022/02/20 00:01:32;;;;;;;19.73;10.77;;;;;;;9.32;39.36;93942.00;5006420;28;20648;-76
2022/02/20 00:03:59;;;;;;;17.65;9.82;;;;;;;9.52;38.98;93949.47;5000911;28;20040;-77
2022/02/20 00:06:25;;;;;;;16.15;9.23;;;;;;;9.34;38.93;93948.56;5010884;28;20050;-76
2022/02/20 00:08:51;;;;;;;19.63;9.00;;;;;;;9.19;39.48;93962.19;5006784;28;20284;-75
2022/02/20 00:11:16;;;;;;;17.48;9.38;;;;;;;9.17;39.51;93947.66;5010401;28;20050;-76
2022/02/20 00:13:42;;;;;;;14.93;9.73;;;;;;;9.10;39.55;93932.09;5005855;28;20021;-77
2022/02/20 00:16:07;;;;;;;13.00;6.82;;;;;;;9.18;39.40;93944.69;5011918;28;20038;-76
2022/02/20 00:18:32;;;;;;;16.33;6.90;;;;;;;9.38;39.00;93954.06;4997813;28;20054;-76
2022/02/20 00:20:58;;;;;;;11.07;6.53;;;;;;;9.09;39.33;93914.63;5005514;28;20038;-76
2022/02/20 00:23:23;;;;;;;11.27;6.70;;;;;;;9.23;39.44;93926.00;5005060;28;20040;-77
2022/02/20 00:25:49;;;;;;;14.15;6.60;;;;;;;9.27;39.29;93929.63;5001162;28;20441;-76
2022/02/20 00:28:15;;;;;;;16.80;9.07;;;;;;;9.19;39.03;93913.66;5002877;28;20213;-77
2022/02/20 00:30:41;;;;;;;13.50;8.45;;;;;;;9.32;39.23;93929.50;5009149;28;20046;-77
2022/02/20 00:33:07;;;;;;;17.50;8.57;;;;;;;9.22;39.42;93915.69;4991871;28;20041;-76
2022/02/20 00:35:33;;;;;;;15.40;8.77;;;;;;;9.09;39.64;93898.72;5001132;28;20968;-76
2022/02/20 00:37:59;;;;;;;14.00;9.50;;;;;;;9.33;39.15;93923.13;5004223;28;20036;-76
2022/02/20 00:40:25;;;;;;;20.50;10.05;;;;;;;9.40;38.87;93920.81;5012764;28;20590;-76
2022/02/20 00:42:51;;;;;;;20.00;10.00;;;;;;;9.07;39.19;93882.31;5000372;28;20121;-77
2022/02/20 00:45:17;;;;;;;14.65;8.10;;;;;;;9.32;39.05;93923.41;5005126;28;20516;-76
2022/02/20 00:47:43;;;;;;;18.80;8.38;;;;;;;9.41;39.13;93922.38;5010085;28;20038;-76
2022/02/20 00:50:10;;;;;;;10.98;6.25;;;;;;;9.29;39.44;93930.09;5005206;28;20153;-76
2022/02/20 00:52:35;;;;;;;12.95;6.95;;;;;;;9.27;39.61;93905.75;5010010;28;20033;-78
2022/02/20 00:55:02;;;;;;;12.65;5.68;;;;;;;9.33;39.44;93925.78;5007810;28;20029;-77
2022/02/20 00:57:28;;;;;;;9.30;5.22;;;;;;;9.23;39.95;93931.31;5009490;28;20040;-77
2022/02/20 00:59:54;;;;;;;9.52;6.22;;;;;;;9.32;39.81;93910.94;5008936;28;20041;-77
2022/02/20 01:02:20;;;;;;;11.02;6.07;;;;;;;9.33;39.77;93904.53;4998953;28;20037;-76
2022/02/20 01:04:45;;;;;;;11.85;6.13;;;;;;;9.20;39.68;93900.06;5010129;28;20052;-76
2022/02/20 01:07:11;;;;;;;9.85;4.68;;;;;;;9.24;40.06;93902.91;5002886;28;20437;-77
2022/02/20 01:09:37;;;;;;;9.80;5.90;;;;;;;9.45;39.77;93923.34;5004298;28;20037;-77
2022/02/20 01:12:04;;;;;;;12.63;6.95;;;;;;;9.01;39.85;93878.19;5004955;28;20120;-76
2022/02/20 01:14:29;;;;;;;13.05;8.80;;;;;;;8.94;38.87;93891.09;5018316;28;20042;-76
2022/02/20 01:16:55;;;;;;;18.25;9.40;;;;;;;9.15;38.72;93939.97;4980449;28;20385;-76
2022/02/20 01:19:20;;;;;;;22.95;11.02;;;;;;;8.94;38.98;93938.84;5008546;28;20127;-77
2022/02/20 01:21:46;;;;;;;26.83;10.02;;;;;;;8.68;39.33;93929.88;5002837;28;20485;-76
2022/02/20 01:24:11;;;;;;;20.45;9.60;;;;;;;8.65;39.68;93925.19;5010734;28;20091;-75
2022/02/20 01:26:37;;;;;;;19.58;8.57;;;;;;;8.72;41.20;93944.09;5002927;28;20042;-76
2022/02/20 01:29:04;;;;;;;19.58;8.10;;;;;;;8.22;41.05;93877.81;5002324;28;20057;-76
2022/02/20 01:31:29;;;;;;;11.93;7.30;;;;;;;8.68;40.66;93956.38;5005669;28;20032;-77
2022/02/20 01:33:55;;;;;;;17.90;8.32;;;;;;;8.61;40.63;93924.97;5006210;28;20033;-76
2022/02/20 01:36:20;;;;;;;14.60;7.65;;;;;;;8.81;40.69;93939.66;5001671;28;20133;-77
2022/02/20 01:38:45;;;;;;;14.77;7.50;;;;;;;8.75;40.46;93901.09;5002671;28;20041;-77
2022/02/20 01:41:11;;;;;;;14.18;6.47;;;;;;;8.90;40.30;93901.50;5002383;28;20033;-76
2022/02/20 01:43:37;;;;;;;14.13;7.15;;;;;;;8.54;40.27;93840.56;5010753;28;20052;-76
2022/02/20 01:46:02;;;;;;;14.15;7.72;;;;;;;9.15;40.08;93924.06;5001303;28;20072;-77
2022/02/20 01:48:35;;;;;;;18.95;8.80;;;;;;;9.16;39.89;93917.66;5021393;28;20087;-76
2022/02/20 01:51:00;;;;;;;15.68;8.57;;;;;;;9.31;39.79;93912.00;5000596;28;20124;-77
2022/02/20 01:53:26;;;;;;;16.52;9.30;;;;;;;9.34;39.31;93907.97;5005719;28;20037;-76
2022/02/20 01:55:51;;;;;;;16.23;8.25;;;;;;;9.47;39.32;93920.41;5004334;28;20375;-77
2022/02/20 01:58:18;;;;;;;15.02;8.20;;;;;;;9.47;39.26;93912.44;5006381;28;20586;-77
2022/02/20 02:00:48;;;;;;;20.02;7.10;;;;;;;9.45;39.57;93914.59;5008500;28;20049;-77
2022/02/20 02:03:15;;;;;;;11.93;5.10;;;;;;;9.48;39.44;93915.88;5004363;28;20534;-77
2022/02/20 02:05:41;;;;;;;13.55;6.45;;;;;;;9.43;39.25;93883.06;5003017;28;20050;-74
2022/02/20 02:08:06;;;;;;;11.27;6.57;;;;;;;9.42;39.33;93886.00;5003035;28;20029;-77
2022/02/20 02:10:32;;;;;;;12.93;6.18;;;;;;;9.35;39.23;93865.19;5002881;28;20388;-76
2022/02/20 02:12:57;;;;;;;13.02;7.32;;;;;;;9.38;39.58;93877.88;5002173;28;20119;-76
2022/02/20 02:15:23;;;;;;;14.18;6.75;;;;;;;9.30;39.21;93862.66;5006860;28;20321;-76
2022/02/20 02:17:48;;;;;;;12.15;6.30;;;;;;;9.30;39.61;93864.53;5005300;28;20049;-77
2022/02/20 02:20:14;;;;;;;14.48;7.35;;;;;;;9.46;39.55;93881.66;5002036;28;20034;-76
2022/02/20 02:22:39;;;;;;;10.93;5.95;;;;;;;9.35;39.43;93869.72;5002801;28;20042;-76
2022/02/20 02:25:06;;;;;;;10.40;5.43;;;;;;;9.40;39.38;93857.09;5005667;28;20667;-76
2022/02/20 02:27:31;;;;;;;8.30;4.55;;;;;;;9.45;39.79;93870.25;5004616;28;20400;-76
2022/02/20 02:29:57;;;;;;;9.60;5.22;;;;;;;9.44;39.59;93868.69;5003124;28;20033;-77
2022/02/20 02:32:23;;;;;;;9.57;4.20;;;;;;;9.45;39.94;93858.84;5001512;28;20037;-76
2022/02/20 02:34:48;;;;;;;7.55;4.78;;;;;;;9.58;39.75;93843.94;5006127;28;20555;-77
2022/02/20 02:37:14;;;;;;;12.15;4.68;;;;;;;9.50;39.68;93829.50;5004041;28;20104;-77
2022/02/20 02:39:41;;;;;;;8.80;5.38;;;;;;;9.45;39.48;93848.22;4996811;28;20092;-76
2022/02/20 02:42:08;;;;;;;8.40;5.60;;;;;;;9.46;39.28;93879.00;5006281;28;20072;-77
2022/02/20 02:44:34;;;;;;;13.07;6.88;;;;;;;9.25;39.22;93877.91;4996364;28;20037;-76
2022/02/20 02:47:00;;;;;;;11.98;7.50;;;;;;;9.19;39.74;93871.97;5022098;28;20467;-76
2022/02/20 02:49:25;;;;;;;16.80;8.23;;;;;;;9.05;39.93;93844.66;5003324;28;20519;-76
2022/02/20 02:51:51;;;;;;;12.55;6.95;;;;;;;8.98;40.27;93813.28;5006806;28;20117;-76
2022/02/20 02:54:20;;;;;;;12.70;6.40;;;;;;;9.24;40.04;93858.56;4999798;28;20044;-76
2022/02/20 02:56:46;;;;;;;12.38;7.35;;;;;;;9.43;39.88;93861.81;4992792;28;20306;-76
2022/02/20 02:59:13;;;;;;;8.90;6.15;;;;;;;9.12;39.83;93842.41;5000859;28;20306;-76
2022/02/20 03:01:39;;;;;;;10.23;6.45;;;;;;;9.20;39.85;93857.59;5004154;28;20056;-76
2022/02/20 03:04:04;;;;;;;13.68;6.55;;;;;;;8.70;40.35;93785.31;4999534;28;20068;-77
2022/02/20 03:06:30;;;;;;;12.13;6.00;;;;;;;9.07;40.42;93837.22;5017379;28;20059;-76
2022/02/20 03:08:55;;;;;;;14.63;6.60;;;;;;;8.92;40.19;93822.44;5002459;28;20048;-77
2022/02/20 03:11:21;;;;;;;10.27;6.75;;;;;;;9.17;40.21;93847.59;5011338;28;20087;-76
2022/02/20 03:13:46;;;;;;;12.00;6.50;;;;;;;9.29;40.29;93839.84;5002716;28;20131;-77
2022/02/20 03:16:12;;;;;;;10.90;5.90;;;;;;;9.13;40.04;93828.06;5008355;28;20051;-76
2022/02/20 03:18:38;;;;;;;18.63;7.68;;;;;;;8.90;40.54;93831.78;5007711;28;20037;-76
2022/02/20 03:21:06;;;;;;;15.30;7.32;;;;;;;8.88;40.52;93832.09;5007245;28;20026;-76
2022/02/20 03:23:31;;;;;;;13.43;7.32;;;;;;;9.00;40.50;93852.75;5004700;28;20038;-77
2022/02/20 03:25:56;;;;;;;13.70;6.88;;;;;;;8.98;40.75;93844.31;5002186;28;20041;-76
2022/02/20 03:28:22;;;;;;;15.73;8.75;;;;;;;9.10;40.54;93862.34;5007934;28;20500;-77
2022/02/20 03:30:48;;;;;;;15.23;8.18;;;;;;;9.12;40.31;93853.03;4999431;28;20274;-76
2022/02/20 03:33:14;;;;;;;15.05;6.57;;;;;;;9.16;40.45;93845.25;5003043;28;20570;-76
2022/02/20 03:35:40;;;;;;;10.27;5.35;;;;;;;9.17;40.15;93837.00;5004650;28;20764;-76
2022/02/20 03:38:05;;;;;;;11.38;4.50;;;;;;;9.10;40.30;93819.88;5007788;28;20266;-76
2022/02/20 03:40:31;;;;;;;10.10;5.03;;;;;;;8.21;41.94;93815.31;5015703;28;20021;-75
2022/02/20 03:42:57;;;;;;;10.38;5.38;;;;;;;8.96;40.91;93841.19;5013451;28;20078;-76
2022/02/20 03:45:22;;;;;;;7.10;5.53;;;;;;;8.89;41.06;93824.91;5007523;28;20030;-76
2022/02/20 03:47:51;;;;;;;12.43;5.75;;;;;;;9.10;40.67;93857.81;5009967;28;20034;-76
2022/02/20 03:50:17;;;;;;;12.70;7.30;;;;;;;8.91;40.58;93851.91;5005593;28;20635;-76
2022/02/20 03:52:42;;;;;;;10.50;6.40;;;;;;;8.91;40.42;93854.56;5017906;28;21235;-76
2022/02/20 03:55:09;;;;;;;17.15;10.07;;;;;;;8.87;40.17;93875.59;5008449;28;20100;-77
2022/02/20 03:57:36;;;;;;;17.27;9.70;;;;;;;8.64;40.77;93892.56;5008639;28;20034;-77
2022/02/20 04:00:15;;;;;;;21.60;10.88;;;;;;;8.42;41.21;93890.63;5004340;28;20952;-76
2022/02/20 04:02:41;;;;;;;19.15;9.13;;;;;;;8.32;41.11;93920.00;5000856;28;20041;-76
2022/02/20 04:05:09;;;;;;;14.20;7.72;;;;;;;8.00;41.87;93906.88;5005575;28;20145;-77
2022/02/20 04:07:35;;;;;;;21.95;8.52;;;;;;;7.91;42.27;93921.88;5021530;28;20177;-76
2022/02/20 04:10:02;;;;;;;20.13;10.30;;;;;;;8.04;42.15;93913.94;5009351;28;20033;-76
2022/02/20 04:12:29;;;;;;;22.00;11.20;;;;;;;8.34;41.53;93920.50;5005718;28;20116;-77
2022/02/20 04:14:54;;;;;;;22.25;10.88;;;;;;;8.35;41.29;93908.03;5006531;28;20041;-76
2022/02/20 04:17:23;;;;;;;24.42;11.60;;;;;;;8.47;42.03;93924.19;5004510;28;20112;-76
2022/02/20 04:19:49;;;;;;;20.25;11.27;;;;;;;8.58;41.38;93942.25;5005209;28;20030;-76
2022/02/20 04:22:14;;;;;;;23.20;10.95;;;;;;;8.42;41.14;93911.84;5004874;28;20027;-75
2022/02/20 04:24:40;;;;;;;17.27;9.88;;;;;;;8.74;41.00;93941.94;5011039;28;20625;-75
2022/02/20 04:27:06;;;;;;;18.38;10.32;;;;;;;8.67;41.13;93954.81;5005918;28;20573;-75
2022/02/20 04:29:32;;;;;;;20.90;10.23;;;;;;;8.66;41.31;93953.25;5001397;28;20045;-76
2022/02/20 04:31:58;;;;;;;18.20;9.32;;;;;;;8.75;40.99;93949.63;5007794;28;20021;-76
2022/02/20 04:34:23;;;;;;;15.10;9.30;;;;;;;8.61;40.84;93940.13;5004692;28;20033;-76
2022/02/20 04:36:49;;;;;;;20.23;10.73;;;;;;;8.80;40.79;93970.72;5009433;28;20041;-77
2022/02/20 04:39:14;;;;;;;16.92;10.27;;;;;;;8.84;40.73;93966.38;5006858;28;20572;-77
2022/02/20 04:41:40;;;;;;;19.95;11.82;;;;;;;8.67;40.98;93963.56;5009526;28;20413;-76
2022/02/20 04:44:05;;;;;;;17.50;10.23;;;;;;;8.83;41.26;93979.94;4999293;28;20429;-76
2022/02/20 04:46:34;;;;;;;25.70;10.82;;;;;;;8.80;40.90;93983.97;5008318;28;20057;-76
2022/02/20 04:49:00;;;;;;;21.58;10.60;;;;;;;8.73;41.35;93985.44;5010221;28;20473;-77
2022/02/20 04:51:25;;;;;;;20.17;9.63;;;;;;;8.68;42.24;93990.84;5006373;28;20034;-77
2022/02/20 04:53:51;;;;;;;22.48;10.68;;;;;;;8.61;41.32;93961.31;5006525;28;20041;-76
2022/02/20 04:56:16;;;;;;;21.70;11.23;;;;;;;8.78;40.69;93982.69;5006385;28;20436;-77
2022/02/20 04:58:42;;;;;;;16.73;10.15;;;;;;;8.83;41.33;93982.59;5004445;28;20183;-76
2022/02/20 05:01:07;;;;;;;28.77;10.95;;;;;;;8.72;41.36;93982.00;5004126;28;20088;-77
2022/02/20 05:03:32;;;;;;;21.20;11.80;;;;;;;8.79;41.54;93979.75;5003513;28;20091;-76
2022/02/20 05:05:58;;;;;;;20.55;11.05;;;;;;;8.71;41.27;93955.78;5005133;28;20049;-76
2022/02/20 05:08:23;;;;;;;18.65;11.02;;;;;;;8.71;41.43;93955.78;5007353;28;20091;-77
2022/02/20 05:10:48;;;;;;;19.17;10.80;;;;;;;8.91;41.23;93976.56;5007074;28;20140;-76
2022/02/20 05:13:14;;;;;;;19.35;11.02;;;;;;;8.82;41.07;93962.44;5007114;28;20025;-77
2022/02/20 05:15:39;;;;;;;25.60;11.02;;;;;;;8.82;41.50;93963.22;5002800;28;20049;-77
2022/02/20 05:18:05;;;;;;;19.40;10.25;;;;;;;9.02;41.21;93969.97;5007105;28;20061;-76
2022/02/20 05:20:30;;;;;;;21.23;9.35;;;;;;;9.11;40.61;93976.16;5007956;28;20053;-76
2022/02/20 05:22:55;;;;;;;18.52;11.25;;;;;;;8.91;40.99;93984.53;5005646;28;20021;-76
2022/02/20 05:25:21;;;;;;;22.48;11.02;;;;;;;8.42;41.12;93996.66;5004611;28;20541;-76
2022/02/20 05:27:46;;;;;;;31.13;13.02;;;;;;;8.10;41.96;93972.91;5007729;28;20048;-77
2022/02/20 05:30:16;;;;;;;20.35;10.27;;;;;;;8.30;41.71;94009.63;5007852;28;20680;-76
2022/02/20 05:32:42;;;;;;;19.15;10.07;;;;;;;8.20;41.52;94009.81;5004198;28;20316;-76
2022/02/20 05:35:09;;;;;;;17.25;9.35;;;;;;;8.19;41.33;94018.81;5004536;28;20045;-77
2022/02/20 05:37:46;;;;;;;20.55;9.95;;;;;;;8.11;41.35;93990.38;5004068;28;20079;-77
2022/02/20 05:40:13;;;;;;;17.75;8.90;;;;;;;8.28;41.83;94014.41;5004800;28;20065;-77
2022/02/20 05:42:39;;;;;;;17.42;9.02;;;;;;;8.36;41.22;94003.16;5002947;28;20076;-76
2022/02/20 05:45:06;;;;;;;14.43;8.38;;;;;;;8.35;40.17;93990.19;5006753;28;20121;-76
2022/02/20 05:47:31;;;;;;;13.13;7.60;;;;;;;8.49;41.15;94020.91;5000901;28;20128;-77
2022/02/20 05:49:56;;;;;;;13.45;7.97;;;;;;;8.36;40.65;94016.41;5005517;28;20559;-76
2022/02/20 05:52:22;;;;;;;12.15;6.95;;;;;;;8.12;41.42;94002.50;5000383;28;20021;-76
2022/02/20 05:54:47;;;;;;;14.38;6.38;;;;;;;7.92;40.81;94005.53;5001318;28;20984;-77
2022/02/20 05:57:13;;;;;;;9.98;5.30;;;;;;;7.98;41.09;94018.38;5006159;28;20095;-76
2022/02/20 05:59:38;;;;;;;14.23;6.32;;;;;;;7.92;41.03;94005.53;5008956;28;20029;-76
2022/02/20 06:02:04;;;;;;;11.30;5.43;;;;;;;7.95;41.37;94015.53;4997143;28;20411;-77
2022/02/20 06:04:29;;;;;;;8.52;4.43;;;;;;;7.83;41.40;93988.72;4998102;28;20630;-76
2022/02/20 06:06:57;;;;;;;15.85;5.20;;;;;;;7.98;41.41;93997.19;5007575;28;20054;-76
2022/02/20 06:09:22;;;;;;;11.57;4.80;;;;;;;8.21;41.20;94005.28;5002318;28;20103;-76
2022/02/20 06:11:47;;;;;;;9.95;3.88;;;;;;;8.14;41.06;93960.63;5003713;28;20590;-76
2022/02/20 06:14:13;;;;;;;8.35;4.25;;;;;;;8.18;40.59;93943.06;5004782;28;20032;-76
2022/02/20 06:16:38;;;;;;;13.23;4.25;;;;;;;8.00;40.33;93901.56;5006088;28;20281;-76
2022/02/20 06:19:04;;;;;;;6.65;3.83;;;;;;;8.70;40.22;93981.53;5006122;28;20094;-76
2022/02/20 06:21:29;;;;;;;7.32;4.20;;;;;;;8.89;41.62;93992.00;5001011;28;20049;-76
2022/02/20 06:23:55;;;;;;;8.43;3.92;;;;;;;8.84;41.65;93986.81;5010086;28;20695;-77
2022/02/20 06:26:20;;;;;;;10.32;4.05;;;;;;;8.71;40.88;93958.44;5000947;28;20513;-77
2022/02/20 06:28:46;;;;;;;10.43;4.15;;;;;;;8.96;40.22;93987.84;4999491;28;20357;-77
2022/02/20 06:31:11;;;;;;;5.50;3.38;;;;;;;8.93;39.68;93958.50;5008623;28;20032;-76
2022/02/20 06:33:37;;;;;;;8.20;4.03;;;;;;;9.22;39.57;93988.13;4999027;28;20489;-77
2022/02/20 06:36:02;;;;;;;12.07;4.55;;;;;;;9.24;39.50;93980.63;5005619;28;20075;-77
2022/02/20 06:38:28;;;;;;;10.98;3.67;;;;;;;9.35;39.56;93997.91;5005014;28;20044;-76
2022/02/20 06:40:53;;;;;;;6.80;4.35;;;;;;;9.47;39.01;93985.97;5002204;28;20029;-77
2022/02/20 06:43:18;;;;;;;7.43;4.00;;;;;;;9.31;39.53;93965.09;5002041;28;20037;-76
2022/02/20 06:45:44;;;;;;;10.38;3.45;;;;;;;9.61;39.56;94005.28;5005815;28;20455;-77
2022/02/20 06:48:09;;;;;;;5.38;3.55;;;;;;;9.78;39.48;94003.53;5007339;28;20364;-76
2022/02/20 06:50:34;;;;;;;6.85;3.70;;;;;;;9.85;39.98;94000.44;5001595;28;20080;-77
2022/02/20 06:53:00;;;;;;;22.15;8.57;;;;;;;9.60;39.64;93995.75;5007135;28;20064;-77
2022/02/20 06:55:26;;;;;;;18.20;8.88;;;;;;;9.56;38.89;94005.41;4999663;28;20105;-76
2022/02/20 06:57:54;;;;;;;13.73;5.72;;;;;;;9.62;38.98;94009.50;5006924;28;20512;-76
2022/02/20 07:00:19;;;;;;;10.07;5.35;;;;;;;9.58;38.64;93984.66;5001650;28;20026;-77
2022/02/20 07:02:44;;;;;;;11.43;4.82;;;;;;;9.67;38.87;93996.13;5007312;28;20049;-76
2022/02/20 07:05:10;;;;;;;11.75;5.40;;;;;;;9.57;39.29;93985.75;5000084;28;20053;-76
2022/02/20 07:07:37;;;;;;;14.27;6.85;;;;;;;9.73;39.50;94008.19;5006239;28;20047;-76
2022/02/20 07:10:06;;;;;;;11.48;6.38;;;;;;;9.73;39.44;93968.34;4996399;28;20509;-77
2022/02/20 07:12:31;;;;;;;16.13;6.75;;;;;;;9.44;39.78;93953.63;5001424;28;20120;-76
2022/02/20 07:14:57;;;;;;;14.07;8.10;;;;;;;9.48;39.63;93968.97;5011732;28;20091;-76
2022/02/20 07:17:22;;;;;;;13.75;6.75;;;;;;;9.87;39.65;93988.44;5006206;28;20068;-77
2022/02/20 07:19:48;;;;;;;11.00;5.00;;;;;;;10.00;39.60;93984.13;4999703;28;20034;-76
2022/02/20 07:22:13;;;;;;;16.17;6.72;;;;;;;10.05;39.68;93968.06;4999702;28;20113;-76
2022/02/20 07:24:39;;;;;;;14.32;7.40;;;;;;;10.18;40.02;93961.06;5006949;28;20041;-77
2022/02/20 07:27:05;;;;;;;15.63;7.68;;;;;;;9.69;40.84;93946.13;5001985;28;20049;-77
2022/02/20 07:29:30;;;;;;;15.48;7.03;;;;;;;9.68;40.66;93933.97;5007765;28;20527;-76
2022/02/20 07:31:55;;;;;;;14.55;7.15;;;;;;;10.08;40.62;93954.16;5002258;28;20561;-77
2022/02/20 07:34:21;;;;;;;42.50;19.77;;;;;;;9.94;40.57;93924.22;5007592;28;20030;-77
2022/02/20 07:36:46;;;;;;;44.83;18.00;;;;;;;10.07;40.31;93927.91;5004045;28;20052;-77
2022/02/20 07:39:12;;;;;;;15.68;9.45;;;;;;;9.90;40.91;93949.84;4995408;28;20038;-75
2022/02/20 07:41:38;;;;;;;22.08;12.02;;;;;;;9.92;41.19;93953.00;5000264;28;20049;-76
2022/02/20 07:44:05;;;;;;;17.08;10.82;;;;;;;10.29;40.43;93978.31;5007499;28;20045;-76
2022/02/20 07:46:31;;;;;;;15.05;9.55;;;;;;;10.28;40.42;93961.59;5005818;28;20022;-77
2022/02/20 07:48:59;;;;;;;16.67;9.50;;;;;;;10.29;40.38;93967.69;5013109;28;20108;-77
2022/02/20 07:51:26;;;;;;;15.18;8.07;;;;;;;10.58;40.41;93969.84;5006044;28;21232;-76
2022/02/20 07:53:52;;;;;;;13.27;7.70;;;;;;;10.68;39.60;93972.22;5006338;28;20042;-76
2022/02/20 07:56:18;;;;;;;13.73;7.55;;;;;;;10.18;41.10;93958.41;5018988;28;20057;-76
2022/02/20 07:58:46;;;;;;;15.25;7.90;;;;;;;10.33;40.73;93942.84;5006088;28;20534;-76
2022/02/20 08:01:12;;;;;;;14.73;6.80;;;;;;;9.56;42.00;93947.00;5004507;28;20037;-78
2022/02/20 08:03:38;;;;;;;16.00;7.25;;;;;;;8.91;42.99;93884.53;5007608;28;20061;-76
2022/02/20 08:06:04;;;;;;;17.92;8.45;;;;;;;8.86;44.26;93934.25;5008144;28;20132;-77
2022/02/20 08:08:30;;;;;;;16.15;8.85;;;;;;;7.94;45.96;93919.41;5003781;28;20053;-77
2022/02/20 08:10:57;;;;;;;15.63;8.73;;;;;;;7.88;46.22;93944.41;5002433;28;20025;-75
2022/02/20 08:13:23;;;;;;;16.60;8.85;;;;;;;7.85;46.46;93950.31;4992806;28;20645;-77
2022/02/20 08:15:48;;;;;;;19.58;8.55;;;;;;;8.58;45.61;93936.16;5000202;28;20046;-77
2022/02/20 08:18:14;;;;;;;17.33;8.10;;;;;;;9.16;44.90;93951.38;4999878;28;20034;-77
2022/02/20 08:20:40;;;;;;;14.65;8.38;;;;;;;8.34;45.47;93936.41;5003208;28;20043;-76
2022/02/20 08:23:06;;;;;;;13.82;8.40;;;;;;;8.05;46.04;93949.16;4999505;28;20045;-77
2022/02/20 08:25:32;;;;;;;16.35;9.15;;;;;;;7.59;46.94;93912.88;5000178;28;20032;-76
2022/02/20 08:27:57;;;;;;;23.48;10.13;;;;;;;7.33;47.46;93913.59;5005145;28;20096;-77
2022/02/20 08:30:23;;;;;;;16.08;8.80;;;;;;;7.77;47.06;93944.91;4997296;28;20037;-77
2022/02/20 08:32:49;;;;;;;19.52;9.32;;;;;;;7.37;47.83;93911.94;5001792;28;20500;-77
2022/02/20 08:35:14;;;;;;;21.55;9.68;;;;;;;7.48;48.15;93927.38;4996226;28;20049;-77
2022/02/20 08:37:43;;;;;;;18.85;9.18;;;;;;;8.06;47.59;93921.59;5003804;28;20497;-78
2022/02/20 08:40:09;;;;;;;17.88;8.32;;;;;;;8.13;46.42;93916.66;5002633;28;20120;-76
2022/02/20 08:42:35;;;;;;;12.77;7.75;;;;;;;8.31;45.91;93907.84;5017163;28;20395;-77
2022/02/20 08:45:00;;;;;;;20.73;10.05;;;;;;;8.25;46.00;93922.28;4984142;28;20514;-77
2022/02/20 08:47:26;;;;;;;18.58;9.13;;;;;;;8.00;46.31;93898.91;5002219;28;20546;-76
2022/02/20 08:49:52;;;;;;;26.50;9.73;;;;;;;8.27;46.24;93925.41;5000287;28;20653;-78
2022/02/20 08:52:18;;;;;;;18.38;9.90;;;;;;;8.14;45.99;93915.59;5002216;28;20211;-77
2022/02/20 08:54:43;;;;;;;14.93;8.93;;;;;;;8.54;45.32;93898.88;5012374;28;20511;-77
2022/02/20 08:57:09;;;;;;;20.95;9.15;;;;;;;8.42;45.05;93877.38;5002918;28;20128;-77
2022/02/20 08:59:35;;;;;;;16.17;9.15;;;;;;;8.34;45.18;93904.59;5003742;28;20527;-76
2022/02/20 09:02:01;;;;;;;18.13;10.05;;;;;;;8.46;45.78;93915.47;4996403;28;20048;-77
2022/02/20 09:04:29;;;;;;;19.08;12.25;;;;;;;8.66;45.85;93921.44;5000668;28;20030;-77
2022/02/20 09:06:54;;;;;;;27.80;14.60;;;;;;;8.79;45.34;93934.66;5003906;28;20072;-76
2022/02/20 09:09:21;;;;;;;24.23;13.13;;;;;;;9.02;44.48;93922.22;5004037;28;20046;-76
2022/02/20 09:11:47;;;;;;;27.42;14.32;;;;;;;9.51;43.89;93936.50;5000509;28;20076;-78
2022/02/20 09:14:14;;;;;;;26.90;13.68;;;;;;;9.61;43.41;93941.56;4990500;28;20778;-77
2022/02/20 09:16:40;;;;;;;34.35;15.90;;;;;;;9.72;43.28;93942.88;5003135;28;20049;-76
2022/02/20 09:19:06;;;;;;;34.33;22.75;;;;;;;9.88;42.53;93944.03;4998367;28;20025;-78
2022/02/20 09:21:32;;;;;;;33.63;21.05;;;;;;;9.72;42.85;93940.22;5003707;28;20030;-77
2022/02/20 09:23:58;;;;;;;42.85;20.85;;;;;;;9.78;42.46;93905.25;4999970;28;20554;-77
2022/02/20 09:26:23;;;;;;;41.08;21.13;;;;;;;10.06;42.10;93931.63;5001413;28;20583;-76
2022/02/20 09:28:49;;;;;;;40.15;22.13;;;;;;;9.98;42.06;93935.81;5005186;28;20030;-77
2022/02/20 09:31:15;;;;;;;36.53;22.13;;;;;;;9.87;42.19;93934.53;5000232;28;20756;-77
2022/02/20 09:33:41;;;;;;;38.78;22.70;;;;;;;9.86;42.15;93927.63;4998729;28;20042;-76
2022/02/20 09:36:09;;;;;;;44.40;22.63;;;;;;;9.93;42.63;93905.97;4999940;28;22023;-77
2022/02/20 09:38:36;;;;;;;43.90;22.25;;;;;;;10.17;42.03;93906.38;4998363;28;20041;-76
2022/02/20 09:41:05;;;;;;;43.75;21.90;;;;;;;10.26;41.81;93918.59;4999043;28;20037;-77
2022/02/20 09:43:34;;;;;;;36.83;21.35;;;;;;;9.79;42.12;93898.06;5000840;28;20155;-76
2022/02/20 09:45:59;;;;;;;40.38;23.00;;;;;;;9.87;42.08;93876.09;5002470;28;20022;-77
2022/02/20 09:48:25;;;;;;;38.05;22.17;;;;;;;10.12;42.13;93896.63;5010360;28;20037;-77
2022/02/20 09:50:51;;;;;;;39.80;22.80;;;;;;;10.26;41.74;93889.34;4998187;28;20033;-77
2022/02/20 09:53:17;;;;;;;36.20;20.85;;;;;;;10.48;40.95;93895.69;4999708;28;20079;-77
2022/02/20 09:55:47;;;;;;;43.53;24.48;;;;;;;10.58;40.70;93911.34;4998031;28;20046;-77
2022/02/20 09:58:14;;;;;;;45.92;24.02;;;;;;;10.66;40.94;93918.56;5002954;28;20124;-77
2022/02/20 10:01:15;;;;;;;46.30;21.23;;;;;;;10.80;41.09;93908.56;5016921;28;20061;-77
2022/02/20 10:03:42;;;;;;;43.65;22.95;;;;;;;10.53;40.95;93876.91;4983181;28;20054;-76
2022/02/20 10:06:10;;;;;;;42.35;23.25;;;;;;;10.80;40.93;93903.25;4995827;28;21008;-76
2022/02/20 10:08:38;;;;;;;56.42;29.00;;;;;;;10.64;41.24;93916.22;5012276;28;20071;-77
2022/02/20 10:11:21;;;;;;;42.03;22.85;;;;;;;10.98;40.55;93894.19;4996283;28;20653;-77
2022/02/20 10:13:48;;;;;;;44.88;23.20;;;;;;;11.11;40.18;93885.25;4995862;28;20033;-77
2022/02/20 10:16:25;;;;;;;37.55;21.58;;;;;;;10.89;40.18;93853.47;5003325;28;20156;-77
2022/02/20 10:18:54;;;;;;;37.65;22.55;;;;;;;11.15;41.01;93891.50;4999357;28;20052;-77
2022/02/20 10:21:25;;;;;;;39.15;21.95;;;;;;;10.87;40.99;93889.47;5003501;28;20565;-76
2022/02/20 10:23:53;;;;;;;36.72;21.42;;;;;;;11.08;40.78;93871.78;4994695;28;20455;-77
2022/02/20 10:26:27;;;;;;;33.10;20.25;;;;;;;11.45;40.49;93872.97;4993209;28;20045;-77
2022/02/20 10:29:18;;;;;;;40.72;22.17;;;;;;;11.57;40.98;93862.50;4994389;28;20611;-77
2022/02/20 10:31:54;;;;;;;31.50;18.90;;;;;;;11.74;40.05;93854.44;5008812;28;20049;-76
2022/02/20 10:34:26;;;;;;;32.67;17.80;;;;;;;11.80;39.46;93861.16;4989294;28;20045;-77
2022/02/20 10:36:54;;;;;;;29.98;17.27;;;;;;;11.19;40.43;93857.06;5000514;28;20049;-76
2022/02/20 10:39:23;;;;;;;28.15;16.45;;;;;;;11.58;40.37;93846.22;4996727;28;20630;-75
2022/02/20 10:41:49;;;;;;;21.42;14.13;;;;;;;11.62;40.19;93811.72;4999176;28;20045;-76
2022/02/20 10:44:16;;;;;;;22.88;14.07;;;;;;;10.98;40.57;93829.53;4998730;28;21297;-76
2022/02/20 10:46:42;;;;;;;25.83;14.02;;;;;;;10.45;41.58;93817.31;5002979;28;20022;-78
2022/02/20 10:49:07;;;;;;;22.80;15.10;;;;;;;11.07;40.87;93831.06;4996590;28;20607;-77
2022/02/20 10:51:38;;;;;;;26.98;15.45;;;;;;;11.29;40.39;93829.34;5000021;28;20037;-76
2022/02/20 10:54:04;;;;;;;26.35;16.00;;;;;;;10.91;41.29;93824.66;5003061;28;20241;-76
2022/02/20 10:56:45;;;;;;;32.72;16.17;;;;;;;10.17;41.83;93795.50;4998765;28;20042;-76
2022/02/20 10:59:11;;;;;;;30.35;15.77;;;;;;;10.94;41.34;93805.44;5000879;28;20057;-78
2022/02/20 11:01:36;;;;;;;27.48;14.85;;;;;;;11.54;41.11;93804.56;5000330;28;20017;-76
2022/02/20 11:04:08;;;;;;;28.02;14.25;;;;;;;11.18;40.64;93805.72;4998489;28;20514;-77
2022/02/20 11:06:34;;;;;;;25.67;14.50;;;;;;;10.70;41.01;93754.59;4997139;28;20060;-75
2022/02/20 11:09:01;;;;;;;27.85;14.43;;;;;;;10.60;41.56;93795.59;4998971;28;20727;-76
2022/02/20 11:11:37;;;;;;;142.43;68.32;;;;;;;11.09;40.94;93799.63;4998836;28;20553;-76
2022/02/20 11:14:10;;;;;;;37.40;21.58;;;;;;;10.67;41.22;93733.94;4997305;28;20121;-75
2022/02/20 11:16:52;;;;;;;26.10;16.25;;;;;;;11.24;40.86;93802.88;4996442;28;20066;-79
2022/02/20 11:19:21;;;;;;;21.05;12.55;;;;;;;11.06;40.84;93783.47;4996366;28;20056;-77
2022/02/20 11:21:52;;;;;;;23.30;13.05;;;;;;;11.42;40.39;93804.38;4995962;28;20049;-79
2022/02/20 11:24:18;;;;;;;25.88;14.57;;;;;;;11.37;40.81;93800.03;5015330;28;20056;-78
2022/02/20 11:26:45;;;;;;;24.73;14.40;;;;;;;11.68;40.71;93794.47;4999558;28;21440;-77